sensor_id;sensor_type;location;lat;lon;timestamp;P1;durP1;ratioP1;P2;durP2;ratioP2
1410;SDS011;700;51.906;8.404;2023-02-11T00:02:35;53.63;;;34.57;;
1410;SDS011;700;51.906;8.404;2023-02-11T00:07:38;59.53;;;34.27;;
1410;SDS011;700;51.906;8.404;2023-02-11T00:12:39;53.33;;;32.30;;
1410;SDS011;700;51.906;8.404;2023-02-11T00:17:39;53.43;;;33.07;;
1410;SDS011;700;51.906;8.404;2023-02-11T00:22:40;48.83;;;33.27;;
1410;SDS011;700;51.906;8.404;2023-02-11T00:27:46;50.90;;;32.33;;
1410;SDS011;700;51.906;8.404;2023-02-11T00:32:46;56.57;;;32.47;;
1410;SDS011;700;51.906;8.404;2023-02-11T00:37:49;44.63;;;29.63;;
1410;SDS011;700;51.906;8.404;2023-02-11T00:42:54;58.33;;;34.40;;
1410;SDS011;700;51.906;8.404;2023-02-11T00:47:57;53.83;;;31.67;;
1410;SDS011;700;51.906;8.404;2023-02-11T00:52:58;51.47;;;33.00;;
1410;SDS011;700;51.906;8.404;2023-02-11T00:58:03;49.80;;;32.33;;
1410;SDS011;700;51.906;8.404;2023-02-11T01:03:07;56.40;;;34.63;;
1410;SDS011;700;51.906;8.404;2023-02-11T01:08:08;53.17;;;32.80;;
1410;SDS011;700;51.906;8.404;2023-02-11T01:13:13;53.57;;;33.53;;
1410;SDS011;700;51.906;8.404;2023-02-11T01:18:13;56.03;;;32.67;;
1410;SDS011;700;51.906;8.404;2023-02-11T01:23:14;52.23;;;31.47;;
1410;SDS011;700;51.906;8.404;2023-02-11T01:28:16;46.00;;;31.93;;
1410;SDS011;700;51.906;8.404;2023-02-11T01:33:18;50.10;;;33.10;;
1410;SDS011;700;51.906;8.404;2023-02-11T01:38:23;46.30;;;32.07;;
1410;SDS011;700;51.906;8.404;2023-02-11T01:43:26;48.00;;;31.07;;
1410;SDS011;700;51.906;8.404;2023-02-11T01:48:34;59.13;;;34.23;;
1410;SDS011;700;51.906;8.404;2023-02-11T01:53:40;46.40;;;31.50;;
1410;SDS011;700;51.906;8.404;2023-02-11T01:59:11;51.80;;;32.90;;
1410;SDS011;700;51.906;8.404;2023-02-11T02:04:16;52.43;;;31.03;;
1410;SDS011;700;51.906;8.404;2023-02-11T02:09:22;48.10;;;32.37;;
1410;SDS011;700;51.906;8.404;2023-02-11T02:14:27;49.27;;;29.93;;
1410;SDS011;700;51.906;8.404;2023-02-11T02:30:20;49.37;;;32.17;;
1410;SDS011;700;51.906;8.404;2023-02-11T02:41:09;45.50;;;31.13;;
1410;SDS011;700;51.906;8.404;2023-02-11T02:46:27;46.80;;;30.63;;
1410;SDS011;700;51.906;8.404;2023-02-11T02:56:53;47.47;;;30.53;;
1410;SDS011;700;51.906;8.404;2023-02-11T03:12:45;48.63;;;30.07;;
1410;SDS011;700;51.906;8.404;2023-02-11T03:17:47;40.03;;;27.83;;
1410;SDS011;700;51.906;8.404;2023-02-11T03:22:52;41.30;;;27.77;;
1410;SDS011;700;51.906;8.404;2023-02-11T03:27:59;41.63;;;27.97;;
1410;SDS011;700;51.906;8.404;2023-02-11T03:33:11;43.40;;;26.10;;
1410;SDS011;700;51.906;8.404;2023-02-11T03:38:29;41.47;;;26.33;;
1410;SDS011;700;51.906;8.404;2023-02-11T03:43:41;37.60;;;25.30;;
1410;SDS011;700;51.906;8.404;2023-02-11T03:48:53;41.60;;;26.63;;
1410;SDS011;700;51.906;8.404;2023-02-11T03:53:59;42.30;;;26.93;;
1410;SDS011;700;51.906;8.404;2023-02-11T03:59:03;39.77;;;27.20;;
1410;SDS011;700;51.906;8.404;2023-02-11T04:04:03;40.73;;;26.63;;
1410;SDS011;700;51.906;8.404;2023-02-11T04:09:07;41.50;;;26.73;;
1410;SDS011;700;51.906;8.404;2023-02-11T04:14:10;37.40;;;25.53;;
1410;SDS011;700;51.906;8.404;2023-02-11T04:19:11;40.30;;;26.43;;
1410;SDS011;700;51.906;8.404;2023-02-11T04:24:13;41.10;;;27.03;;
1410;SDS011;700;51.906;8.404;2023-02-11T04:29:17;40.77;;;27.50;;
1410;SDS011;700;51.906;8.404;2023-02-11T04:34:20;38.50;;;26.47;;
1410;SDS011;700;51.906;8.404;2023-02-11T04:39:26;46.37;;;26.67;;
1410;SDS011;700;51.906;8.404;2023-02-11T04:44:28;40.30;;;26.20;;
1410;SDS011;700;51.906;8.404;2023-02-11T04:49:29;38.53;;;26.80;;
1410;SDS011;700;51.906;8.404;2023-02-11T04:54:32;47.00;;;28.60;;
1410;SDS011;700;51.906;8.404;2023-02-11T04:59:33;48.80;;;27.47;;
1410;SDS011;700;51.906;8.404;2023-02-11T05:04:36;42.63;;;26.67;;
1410;SDS011;700;51.906;8.404;2023-02-11T05:09:37;47.90;;;27.80;;
1410;SDS011;700;51.906;8.404;2023-02-11T05:14:37;40.30;;;28.93;;
1410;SDS011;700;51.906;8.404;2023-02-11T05:19:38;46.20;;;27.60;;
1410;SDS011;700;51.906;8.404;2023-02-11T05:24:40;45.73;;;29.17;;
1410;SDS011;700;51.906;8.404;2023-02-11T05:29:44;41.33;;;30.87;;
1410;SDS011;700;51.906;8.404;2023-02-11T05:34:45;48.70;;;31.90;;
1410;SDS011;700;51.906;8.404;2023-02-11T05:39:45;49.50;;;30.70;;
1410;SDS011;700;51.906;8.404;2023-02-11T05:44:51;53.33;;;32.30;;
1410;SDS011;700;51.906;8.404;2023-02-11T05:49:51;50.47;;;33.47;;
1410;SDS011;700;51.906;8.404;2023-02-11T05:54:52;50.17;;;31.50;;
1410;SDS011;700;51.906;8.404;2023-02-11T05:59:53;49.73;;;31.57;;
1410;SDS011;700;51.906;8.404;2023-02-11T06:04:53;46.40;;;31.30;;
1410;SDS011;700;51.906;8.404;2023-02-11T06:09:54;52.37;;;31.77;;
1410;SDS011;700;51.906;8.404;2023-02-11T06:14:54;50.07;;;32.10;;
1410;SDS011;700;51.906;8.404;2023-02-11T06:19:55;49.27;;;32.80;;
1410;SDS011;700;51.906;8.404;2023-02-11T06:25:04;51.37;;;34.03;;
1410;SDS011;700;51.906;8.404;2023-02-11T06:30:05;52.13;;;34.53;;
1410;SDS011;700;51.906;8.404;2023-02-11T06:35:09;54.87;;;33.90;;
1410;SDS011;700;51.906;8.404;2023-02-11T06:40:10;48.33;;;32.77;;
1410;SDS011;700;51.906;8.404;2023-02-11T06:45:13;63.23;;;37.90;;
1410;SDS011;700;51.906;8.404;2023-02-11T06:50:14;52.63;;;35.63;;
1410;SDS011;700;51.906;8.404;2023-02-11T06:55:15;50.03;;;33.40;;
1410;SDS011;700;51.906;8.404;2023-02-11T07:00:16;54.47;;;35.47;;
1410;SDS011;700;51.906;8.404;2023-02-11T07:05:19;52.83;;;35.67;;
1410;SDS011;700;51.906;8.404;2023-02-11T07:10:20;55.23;;;35.73;;
1410;SDS011;700;51.906;8.404;2023-02-11T07:15:23;54.60;;;35.97;;
1410;SDS011;700;51.906;8.404;2023-02-11T07:20:24;54.53;;;36.47;;
1410;SDS011;700;51.906;8.404;2023-02-11T07:25:25;59.13;;;36.60;;
1410;SDS011;700;51.906;8.404;2023-02-11T07:30:26;56.77;;;37.10;;
1410;SDS011;700;51.906;8.404;2023-02-11T07:35:27;62.87;;;39.57;;
1410;SDS011;700;51.906;8.404;2023-02-11T07:40:27;63.90;;;40.33;;
1410;SDS011;700;51.906;8.404;2023-02-11T07:45:30;62.80;;;40.27;;
1410;SDS011;700;51.906;8.404;2023-02-11T07:50:31;56.57;;;39.27;;
1410;SDS011;700;51.906;8.404;2023-02-11T07:55:32;67.68;;;42.08;;
1410;SDS011;700;51.906;8.404;2023-02-11T08:00:32;66.10;;;40.20;;
1410;SDS011;700;51.906;8.404;2023-02-11T08:05:36;74.20;;;40.23;;
1410;SDS011;700;51.906;8.404;2023-02-11T08:10:37;63.60;;;38.37;;
1410;SDS011;700;51.906;8.404;2023-02-11T08:15:43;67.07;;;39.97;;
1410;SDS011;700;51.906;8.404;2023-02-11T08:20:44;66.00;;;40.40;;
1410;SDS011;700;51.906;8.404;2023-02-11T08:25:44;62.87;;;39.90;;
1410;SDS011;700;51.906;8.404;2023-02-11T08:30:47;63.87;;;39.93;;
1410;SDS011;700;51.906;8.404;2023-02-11T08:35:48;56.77;;;38.00;;
1410;SDS011;700;51.906;8.404;2023-02-11T08:40:48;69.57;;;41.63;;
1410;SDS011;700;51.906;8.404;2023-02-11T08:45:51;68.80;;;42.50;;
1410;SDS011;700;51.906;8.404;2023-02-11T08:50:54;82.00;;;43.70;;
1410;SDS011;700;51.906;8.404;2023-02-11T08:55:56;66.20;;;39.90;;
1410;SDS011;700;51.906;8.404;2023-02-11T09:00:59;73.20;;;41.57;;
1410;SDS011;700;51.906;8.404;2023-02-11T09:06:10;75.70;;;42.90;;
1410;SDS011;700;51.906;8.404;2023-02-11T09:11:20;73.57;;;41.30;;
1410;SDS011;700;51.906;8.404;2023-02-11T09:16:28;66.23;;;39.70;;
1410;SDS011;700;51.906;8.404;2023-02-11T09:21:29;71.67;;;39.70;;
1410;SDS011;700;51.906;8.404;2023-02-11T09:26:34;75.10;;;42.87;;
1410;SDS011;700;51.906;8.404;2023-02-11T09:31:35;71.73;;;43.00;;
1410;SDS011;700;51.906;8.404;2023-02-11T09:36:37;76.47;;;42.83;;
1410;SDS011;700;51.906;8.404;2023-02-11T09:57:44;74.80;;;41.47;;
1410;SDS011;700;51.906;8.404;2023-02-11T10:24:17;68.97;;;40.50;;
1410;SDS011;700;51.906;8.404;2023-02-11T10:34:47;63.27;;;40.13;;
1410;SDS011;700;51.906;8.404;2023-02-11T10:39:48;75.07;;;42.23;;
1410;SDS011;700;51.906;8.404;2023-02-11T10:55:23;72.27;;;44.07;;
1410;SDS011;700;51.906;8.404;2023-02-11T11:05:45;66.47;;;39.70;;
1410;SDS011;700;51.906;8.404;2023-02-11T11:11:01;66.93;;;39.70;;
1410;SDS011;700;51.906;8.404;2023-02-11T11:21:18;63.70;;;37.50;;
1410;SDS011;700;51.906;8.404;2023-02-11T11:26:19;63.77;;;38.20;;
1410;SDS011;700;51.906;8.404;2023-02-11T11:31:33;69.03;;;39.47;;
1410;SDS011;700;51.906;8.404;2023-02-11T11:36:44;60.70;;;39.63;;
1410;SDS011;700;51.906;8.404;2023-02-11T11:41:49;61.27;;;39.37;;
1410;SDS011;700;51.906;8.404;2023-02-11T11:57:36;65.33;;;39.57;;
1410;SDS011;700;51.906;8.404;2023-02-11T12:13:38;59.57;;;36.73;;
1410;SDS011;700;51.906;8.404;2023-02-11T12:19:03;56.80;;;37.63;;
1410;SDS011;700;51.906;8.404;2023-02-11T12:29:41;52.83;;;35.50;;
1410;SDS011;700;51.906;8.404;2023-02-11T12:35:04;53.50;;;36.30;;
1410;SDS011;700;51.906;8.404;2023-02-11T12:55:50;52.30;;;32.93;;
1410;SDS011;700;51.906;8.404;2023-02-11T13:01:22;49.23;;;32.57;;
1410;SDS011;700;51.906;8.404;2023-02-11T13:06:33;51.57;;;33.90;;
1410;SDS011;700;51.906;8.404;2023-02-11T13:11:40;56.20;;;35.23;;
1410;SDS011;700;51.906;8.404;2023-02-11T13:16:53;41.63;;;30.40;;
1410;SDS011;700;51.906;8.404;2023-02-11T13:22:18;43.77;;;30.73;;
1410;SDS011;700;51.906;8.404;2023-02-11T13:38:22;40.27;;;27.57;;
1410;SDS011;700;51.906;8.404;2023-02-11T13:43:24;39.53;;;26.00;;
1410;SDS011;700;51.906;8.404;2023-02-11T13:48:30;39.80;;;27.60;;
1410;SDS011;700;51.906;8.404;2023-02-11T13:53:43;41.77;;;26.70;;
1410;SDS011;700;51.906;8.404;2023-02-11T13:58:52;39.00;;;26.53;;
1410;SDS011;700;51.906;8.404;2023-02-11T14:09:44;39.13;;;25.27;;
1410;SDS011;700;51.906;8.404;2023-02-11T14:15:14;37.63;;;26.40;;
1410;SDS011;700;51.906;8.404;2023-02-11T14:20:31;40.53;;;26.03;;
1410;SDS011;700;51.906;8.404;2023-02-11T14:25:37;37.60;;;25.30;;
1410;SDS011;700;51.906;8.404;2023-02-11T14:41:54;39.17;;;25.80;;
1410;SDS011;700;51.906;8.404;2023-02-11T14:46:55;37.43;;;25.70;;
1410;SDS011;700;51.906;8.404;2023-02-11T14:51:59;35.07;;;25.10;;
1410;SDS011;700;51.906;8.404;2023-02-11T14:57:13;34.63;;;25.70;;
1410;SDS011;700;51.906;8.404;2023-02-11T15:02:19;38.83;;;25.43;;
1410;SDS011;700;51.906;8.404;2023-02-11T15:07:26;38.27;;;25.63;;
1410;SDS011;700;51.906;8.404;2023-02-11T15:12:27;38.50;;;25.73;;
1410;SDS011;700;51.906;8.404;2023-02-11T15:17:28;36.93;;;25.70;;
1410;SDS011;700;51.906;8.404;2023-02-11T15:22:32;39.43;;;24.60;;
1410;SDS011;700;51.906;8.404;2023-02-11T15:27:40;39.00;;;25.07;;
1410;SDS011;700;51.906;8.404;2023-02-11T15:32:45;34.67;;;22.97;;
1410;SDS011;700;51.906;8.404;2023-02-11T15:37:45;35.33;;;25.80;;
1410;SDS011;700;51.906;8.404;2023-02-11T15:42:58;35.70;;;25.37;;
1410;SDS011;700;51.906;8.404;2023-02-11T15:53:37;35.00;;;24.43;;
1410;SDS011;700;51.906;8.404;2023-02-11T15:58:45;32.80;;;23.83;;
1410;SDS011;700;51.906;8.404;2023-02-11T16:03:50;35.70;;;25.30;;
1410;SDS011;700;51.906;8.404;2023-02-11T16:08:58;38.87;;;27.40;;
1410;SDS011;700;51.906;8.404;2023-02-11T16:14:01;32.00;;;22.10;;
1410;SDS011;700;51.906;8.404;2023-02-11T16:19:20;32.90;;;24.27;;
1410;SDS011;700;51.906;8.404;2023-02-11T16:24:24;34.13;;;25.90;;
1410;SDS011;700;51.906;8.404;2023-02-11T16:29:27;35.80;;;25.83;;
1410;SDS011;700;51.906;8.404;2023-02-11T16:34:34;40.13;;;29.60;;
1410;SDS011;700;51.906;8.404;2023-02-11T16:39:35;38.43;;;25.77;;
1410;SDS011;700;51.906;8.404;2023-02-11T16:44:36;37.43;;;27.60;;
1410;SDS011;700;51.906;8.404;2023-02-11T16:49:39;36.97;;;25.87;;
1410;SDS011;700;51.906;8.404;2023-02-11T16:54:40;39.07;;;27.43;;
1410;SDS011;700;51.906;8.404;2023-02-11T16:59:41;37.47;;;27.63;;
1410;SDS011;700;51.906;8.404;2023-02-11T17:04:47;36.60;;;25.67;;
1410;SDS011;700;51.906;8.404;2023-02-11T17:09:48;37.13;;;25.23;;
1410;SDS011;700;51.906;8.404;2023-02-11T17:14:49;43.40;;;33.77;;
1410;SDS011;700;51.906;8.404;2023-02-11T17:19:50;37.67;;;26.20;;
1410;SDS011;700;51.906;8.404;2023-02-11T17:24:53;38.67;;;27.90;;
1410;SDS011;700;51.906;8.404;2023-02-11T17:29:56;33.57;;;24.80;;
1410;SDS011;700;51.906;8.404;2023-02-11T17:34:56;34.03;;;25.63;;
1410;SDS011;700;51.906;8.404;2023-02-11T17:39:57;38.93;;;26.40;;
1410;SDS011;700;51.906;8.404;2023-02-11T17:44:57;35.47;;;26.27;;
1410;SDS011;700;51.906;8.404;2023-02-11T17:50:01;36.70;;;26.47;;
1410;SDS011;700;51.906;8.404;2023-02-11T17:55:02;39.27;;;26.30;;
1410;SDS011;700;51.906;8.404;2023-02-11T18:00:04;38.47;;;26.57;;
1410;SDS011;700;51.906;8.404;2023-02-11T18:05:08;37.53;;;27.50;;
1410;SDS011;700;51.906;8.404;2023-02-11T18:10:11;36.17;;;27.40;;
1410;SDS011;700;51.906;8.404;2023-02-11T18:15:14;40.30;;;29.33;;
1410;SDS011;700;51.906;8.404;2023-02-11T18:20:15;41.17;;;27.13;;
1410;SDS011;700;51.906;8.404;2023-02-11T18:25:16;37.33;;;28.17;;
1410;SDS011;700;51.906;8.404;2023-02-11T18:30:18;36.17;;;27.03;;
1410;SDS011;700;51.906;8.404;2023-02-11T18:35:19;37.87;;;28.37;;
1410;SDS011;700;51.906;8.404;2023-02-11T18:40:20;36.87;;;28.40;;
1410;SDS011;700;51.906;8.404;2023-02-11T18:45:20;38.30;;;29.93;;
1410;SDS011;700;51.906;8.404;2023-02-11T18:50:22;39.93;;;29.00;;
1410;SDS011;700;51.906;8.404;2023-02-11T18:55:26;41.43;;;28.00;;
1410;SDS011;700;51.906;8.404;2023-02-11T19:00:26;32.13;;;25.73;;
1410;SDS011;700;51.906;8.404;2023-02-11T19:05:27;41.00;;;28.47;;
1410;SDS011;700;51.906;8.404;2023-02-11T19:10:34;41.97;;;29.90;;
1410;SDS011;700;51.906;8.404;2023-02-11T19:15:45;40.40;;;28.30;;
1410;SDS011;700;51.906;8.404;2023-02-11T19:20:46;33.80;;;26.37;;
1410;SDS011;700;51.906;8.404;2023-02-11T19:25:47;32.70;;;26.30;;
1410;SDS011;700;51.906;8.404;2023-02-11T19:30:47;38.80;;;27.00;;
1410;SDS011;700;51.906;8.404;2023-02-11T19:35:48;42.07;;;28.47;;
1410;SDS011;700;51.906;8.404;2023-02-11T19:40:54;38.73;;;30.10;;
1410;SDS011;700;51.906;8.404;2023-02-11T19:45:55;33.90;;;26.70;;
1410;SDS011;700;51.906;8.404;2023-02-11T19:50:57;37.60;;;27.37;;
1410;SDS011;700;51.906;8.404;2023-02-11T19:56:05;36.43;;;28.07;;
1410;SDS011;700;51.906;8.404;2023-02-11T20:01:10;35.43;;;27.60;;
1410;SDS011;700;51.906;8.404;2023-02-11T20:06:13;37.30;;;26.90;;
1410;SDS011;700;51.906;8.404;2023-02-11T20:11:18;37.77;;;26.80;;
1410;SDS011;700;51.906;8.404;2023-02-11T20:16:20;32.93;;;25.87;;
1410;SDS011;700;51.906;8.404;2023-02-11T20:21:23;35.23;;;27.77;;
1410;SDS011;700;51.906;8.404;2023-02-11T20:26:29;35.87;;;27.57;;
1410;SDS011;700;51.906;8.404;2023-02-11T20:31:33;35.27;;;27.53;;
1410;SDS011;700;51.906;8.404;2023-02-11T20:36:34;38.20;;;28.40;;
1410;SDS011;700;51.906;8.404;2023-02-11T20:41:37;33.87;;;26.47;;
1410;SDS011;700;51.906;8.404;2023-02-11T20:46:41;37.83;;;26.97;;
1410;SDS011;700;51.906;8.404;2023-02-11T20:51:47;39.87;;;29.53;;
1410;SDS011;700;51.906;8.404;2023-02-11T20:56:51;36.87;;;30.07;;
1410;SDS011;700;51.906;8.404;2023-02-11T21:01:58;37.40;;;28.30;;
1410;SDS011;700;51.906;8.404;2023-02-11T21:06:59;36.97;;;27.63;;
1410;SDS011;700;51.906;8.404;2023-02-11T21:12:02;34.33;;;26.97;;
1410;SDS011;700;51.906;8.404;2023-02-11T21:17:04;36.73;;;28.93;;
1410;SDS011;700;51.906;8.404;2023-02-11T21:22:07;39.43;;;26.60;;
1410;SDS011;700;51.906;8.404;2023-02-11T21:27:08;36.97;;;29.03;;
1410;SDS011;700;51.906;8.404;2023-02-11T21:32:09;38.10;;;29.53;;
1410;SDS011;700;51.906;8.404;2023-02-11T21:37:10;36.57;;;28.50;;
1410;SDS011;700;51.906;8.404;2023-02-11T21:42:10;38.70;;;28.77;;
1410;SDS011;700;51.906;8.404;2023-02-11T21:47:16;36.87;;;29.80;;
1410;SDS011;700;51.906;8.404;2023-02-11T21:52:16;36.30;;;28.00;;
1410;SDS011;700;51.906;8.404;2023-02-11T21:57:17;37.23;;;27.90;;
1410;SDS011;700;51.906;8.404;2023-02-11T22:02:20;35.33;;;27.70;;
1410;SDS011;700;51.906;8.404;2023-02-11T22:07:20;39.80;;;29.63;;
1410;SDS011;700;51.906;8.404;2023-02-11T22:12:26;38.50;;;29.57;;
1410;SDS011;700;51.906;8.404;2023-02-11T22:17:26;40.27;;;28.40;;
1410;SDS011;700;51.906;8.404;2023-02-11T22:22:27;37.47;;;28.10;;
1410;SDS011;700;51.906;8.404;2023-02-11T22:27:28;38.90;;;29.73;;
1410;SDS011;700;51.906;8.404;2023-02-11T22:32:28;36.87;;;28.67;;
1410;SDS011;700;51.906;8.404;2023-02-11T22:37:29;35.23;;;25.90;;
1410;SDS011;700;51.906;8.404;2023-02-11T22:42:30;37.07;;;28.57;;
1410;SDS011;700;51.906;8.404;2023-02-11T22:47:30;40.23;;;29.10;;
1410;SDS011;700;51.906;8.404;2023-02-11T22:52:31;34.53;;;27.57;;
1410;SDS011;700;51.906;8.404;2023-02-11T22:57:36;38.87;;;30.00;;
1410;SDS011;700;51.906;8.404;2023-02-11T23:02:41;37.20;;;28.07;;
1410;SDS011;700;51.906;8.404;2023-02-11T23:07:44;35.30;;;27.70;;
1410;SDS011;700;51.906;8.404;2023-02-11T23:12:45;32.90;;;27.53;;
1410;SDS011;700;51.906;8.404;2023-02-11T23:17:45;33.70;;;27.40;;
1410;SDS011;700;51.906;8.404;2023-02-11T23:22:48;36.37;;;29.20;;
1410;SDS011;700;51.906;8.404;2023-02-11T23:27:49;37.00;;;27.40;;
1410;SDS011;700;51.906;8.404;2023-02-11T23:32:50;34.80;;;27.53;;
1410;SDS011;700;51.906;8.404;2023-02-11T23:37:53;34.83;;;28.13;;
1410;SDS011;700;51.906;8.404;2023-02-11T23:42:54;37.67;;;27.57;;
1410;SDS011;700;51.906;8.404;2023-02-11T23:47:54;36.33;;;26.80;;
1410;SDS011;700;51.906;8.404;2023-02-11T23:52:57;35.53;;;27.23;;
1410;SDS011;700;51.906;8.404;2023-02-11T23:58:00;41.33;;;28.10;;
